createdAt,value
2023-03-28T00:01:13.969Z,6.05
2023-03-28T00:03:42.710Z,12.63
2023-03-28T00:06:12.917Z,12.32
2023-03-28T00:08:42.694Z,12.05
2023-03-28T00:11:18.827Z,10.85
2023-03-28T00:13:48.224Z,16.17
2023-03-28T00:16:17.817Z,7.63
2023-03-28T00:18:46.657Z,10.07
2023-03-28T00:21:24.480Z,11.33
2023-03-28T00:23:53.876Z,9.60
2023-03-28T00:26:26.931Z,5.83
2023-03-28T00:28:55.820Z,8.37
2023-03-28T00:31:26.648Z,8.88
2023-03-28T00:33:56.396Z,12.97
2023-03-28T00:36:29.883Z,11.13
2023-03-28T00:38:58.532Z,16.45
2023-03-28T00:41:32.317Z,8.03
2023-03-28T00:44:03.062Z,10.07
2023-03-28T00:46:36.649Z,8.60
2023-03-28T00:49:12.447Z,10.23
2023-03-28T00:51:46.311Z,9.50
2023-03-28T00:54:17.869Z,10.60
2023-03-28T00:56:50.985Z,12.38
2023-03-28T00:59:21.356Z,8.63
2023-03-28T01:01:50.002Z,15.83
2023-03-28T01:04:22.207Z,13.23
2023-03-28T01:06:55.056Z,9.33
2023-03-28T01:09:24.676Z,14.23
2023-03-28T01:11:57.746Z,7.53
2023-03-28T01:14:29.997Z,15.27
2023-03-28T01:16:58.769Z,8.77
2023-03-28T01:19:42.706Z,12.37
2023-03-28T01:22:57.153Z,12.63
2023-03-28T01:25:53.671Z,7.43
2023-03-28T01:28:41.735Z,11.13
2023-03-28T01:31:42.849Z,13.63
2023-03-28T01:34:29.517Z,12.23
2023-03-28T01:37:23.707Z,5.95
2023-03-28T01:40:07.177Z,9.57
2023-03-28T01:42:46.462Z,10.85
2023-03-28T01:45:20.182Z,10.50
2023-03-28T01:47:57.366Z,14.43
2023-03-28T01:50:53.437Z,15.63
2023-03-28T01:53:31.568Z,13.33
2023-03-28T01:56:04.913Z,11.77
2023-03-28T01:58:44.781Z,14.15
2023-03-28T02:01:16.663Z,10.82
2023-03-28T02:03:49.831Z,13.13
2023-03-28T02:06:21.148Z,20.87
2023-03-28T02:08:52.646Z,13.60
2023-03-28T02:11:21.164Z,17.85
2023-03-28T02:13:54.770Z,14.63
2023-03-28T02:16:24.710Z,13.43
2023-03-28T02:18:57.851Z,19.38
2023-03-28T02:21:30.885Z,6.82
2023-03-28T02:24:01.417Z,5.70
2023-03-28T02:26:30.703Z,15.93
2023-03-28T02:29:00.903Z,14.75
2023-03-28T02:31:30.526Z,13.10
2023-03-28T02:33:59.018Z,17.08
2023-03-28T02:36:43.255Z,9.93
2023-03-28T02:39:46.455Z,11.48
2023-03-28T02:42:45.399Z,15.48
2023-03-28T02:45:56.241Z,9.88
2023-03-28T02:48:37.988Z,12.48
2023-03-28T02:51:18.053Z,11.70
2023-03-28T02:53:54.230Z,15.48
2023-03-28T02:56:31.934Z,12.38
2023-03-28T02:59:05.854Z,17.17
2023-03-28T03:01:36.882Z,16.13
2023-03-28T03:04:05.594Z,11.32
2023-03-28T03:06:35.236Z,7.70
2023-03-28T03:09:04.816Z,24.40
2023-03-28T03:11:34.855Z,13.27
2023-03-28T03:14:04.017Z,17.60
2023-03-28T03:16:33.223Z,14.40
2023-03-28T03:19:02.766Z,11.00
2023-03-28T03:21:31.033Z,17.20
2023-03-28T03:23:59.623Z,10.98
2023-03-28T03:26:28.324Z,17.77
2023-03-28T03:28:58.279Z,7.75
2023-03-28T03:31:44.385Z,15.80
2023-03-28T03:34:15.751Z,8.57
2023-03-28T03:36:44.797Z,10.00
2023-03-28T03:39:13.051Z,10.73
2023-03-28T03:41:41.813Z,8.68
2023-03-28T03:44:12.644Z,24.40
2023-03-28T03:46:41.776Z,9.40
2023-03-28T03:49:10.632Z,12.40
2023-03-28T03:51:40.471Z,15.40
2023-03-28T03:54:08.880Z,9.00
2023-03-28T03:56:38.236Z,14.75
2023-03-28T03:59:06.591Z,16.75
2023-03-28T04:01:39.497Z,12.38
2023-03-28T04:04:08.359Z,19.48
2023-03-28T04:06:38.751Z,9.38
2023-03-28T04:09:07.689Z,13.80
2023-03-28T04:11:37.291Z,11.13
2023-03-28T04:14:05.857Z,21.90
2023-03-28T04:16:40.382Z,11.77
2023-03-28T04:19:13.993Z,11.70
2023-03-28T04:21:43.789Z,9.32
2023-03-28T04:24:15.643Z,10.93
2023-03-28T04:26:45.909Z,11.65
2023-03-28T04:29:14.981Z,12.82
2023-03-28T04:31:50.103Z,10.05
2023-03-28T04:34:20.033Z,10.85
2023-03-28T04:36:48.461Z,8.27
2023-03-28T04:39:16.782Z,20.85
2023-03-28T04:41:48.020Z,13.70
2023-03-28T04:44:16.828Z,10.32
2023-03-28T04:46:48.898Z,12.13
2023-03-28T04:49:17.453Z,14.40
2023-03-28T04:51:46.982Z,13.10
2023-03-28T04:54:16.022Z,10.88
2023-03-28T04:56:48.094Z,8.00
2023-03-28T04:59:17.802Z,8.70
2023-03-28T05:01:50.017Z,8.32
2023-03-28T05:04:19.254Z,17.67
2023-03-28T05:06:49.529Z,9.95
2023-03-28T05:09:18.655Z,15.25
2023-03-28T05:11:47.559Z,18.00
2023-03-28T05:14:15.946Z,10.00
2023-03-28T05:16:44.779Z,13.32
2023-03-28T05:19:14.659Z,9.90
2023-03-28T05:21:42.888Z,10.77
2023-03-28T05:24:11.961Z,15.73
2023-03-28T05:26:41.242Z,11.65
2023-03-28T05:29:10.163Z,14.27
2023-03-28T05:31:39.112Z,13.98
2023-03-28T05:34:09.143Z,7.45
2023-03-28T05:36:38.884Z,9.23
2023-03-28T05:39:07.400Z,8.43
2023-03-28T05:41:36.030Z,14.50
2023-03-28T05:44:05.381Z,21.58
2023-03-28T05:46:33.871Z,18.98
2023-03-28T05:49:02.236Z,16.58
2023-03-28T05:51:30.417Z,9.32
2023-03-28T05:54:00.074Z,14.23
2023-03-28T05:56:29.046Z,14.30
2023-03-28T05:58:57.171Z,13.93
2023-03-28T06:01:27.778Z,11.70
2023-03-28T06:03:57.492Z,18.23
2023-03-28T06:06:25.720Z,9.27
2023-03-28T06:08:53.797Z,12.95
2023-03-28T06:11:23.437Z,10.85
2023-03-28T06:13:51.816Z,12.52
2023-03-28T06:16:20.113Z,18.60
2023-03-28T06:19:14.302Z,24.88
2023-03-28T06:21:46.002Z,21.17
2023-03-28T06:24:14.896Z,9.00
2023-03-28T06:26:44.999Z,19.45
2023-03-28T06:29:13.376Z,11.10
2023-03-28T06:31:41.637Z,14.15
2023-03-28T06:34:09.920Z,6.30
2023-03-28T06:36:38.691Z,12.30
2023-03-28T06:39:07.769Z,13.20
2023-03-28T06:41:36.193Z,10.02
2023-03-28T06:44:07.277Z,13.20
2023-03-28T06:46:35.570Z,23.80
2023-03-28T06:49:04.416Z,11.93
2023-03-28T06:51:33.039Z,16.23
2023-03-28T06:55:15.836Z,14.05
2023-03-28T06:59:05.438Z,13.88
2023-03-28T07:09:54.639Z,13.03
2023-03-28T07:12:22.925Z,13.80
2023-03-28T07:14:52.090Z,14.07
2023-03-28T07:17:21.755Z,11.90
2023-03-28T07:19:55.390Z,12.88
2023-03-28T07:22:23.716Z,11.95
2023-03-28T07:24:53.276Z,12.18
2023-03-28T07:27:23.345Z,23.10
2023-03-28T07:29:52.754Z,12.15
2023-03-28T07:32:20.988Z,16.58
2023-03-28T07:34:52.608Z,16.40
2023-03-28T07:37:21.038Z,10.10
2023-03-28T07:39:50.037Z,19.35
2023-03-28T07:42:20.585Z,16.73
2023-03-28T07:44:49.835Z,12.40
2023-03-28T07:47:18.341Z,11.18
2023-03-28T07:49:47.310Z,11.43
2023-03-28T07:52:20.687Z,13.48
2023-03-28T07:54:49.067Z,9.85
2023-03-28T07:57:22.213Z,15.10
2023-03-28T07:59:50.774Z,12.65
2023-03-28T08:02:20.315Z,19.40
2023-03-28T08:04:48.817Z,17.60
2023-03-28T08:07:23.061Z,16.27
2023-03-28T08:09:52.299Z,25.20
2023-03-28T08:12:21.913Z,16.33
2023-03-28T08:14:50.172Z,19.35
2023-03-28T08:17:18.440Z,16.42
2023-03-28T08:19:46.702Z,9.82
2023-03-28T08:22:16.733Z,13.10
2023-03-28T08:24:45.659Z,9.50
2023-03-28T08:27:14.873Z,10.35
2023-03-28T08:29:58.157Z,15.38
2023-03-28T08:32:26.868Z,9.27
2023-03-28T08:34:55.823Z,12.50
2023-03-28T08:37:24.965Z,13.02
2023-03-28T08:39:54.791Z,14.95
2023-03-28T08:42:47.050Z,12.18
2023-03-28T08:45:29.148Z,10.63
2023-03-28T08:48:08.704Z,11.13
2023-03-28T08:50:40.969Z,13.95
2023-03-28T08:53:20.191Z,7.82
2023-03-28T08:55:51.653Z,9.50
2023-03-28T08:58:25.004Z,10.27
2023-03-28T09:00:55.067Z,11.48
2023-03-28T09:03:25.460Z,8.05
2023-03-28T09:06:01.143Z,11.00
2023-03-28T09:08:53.886Z,12.10
2023-03-28T09:11:34.188Z,13.32
2023-03-28T09:14:14.624Z,13.82
2023-03-28T09:16:55.573Z,11.45
2023-03-28T09:19:47.848Z,12.77
2023-03-28T09:22:30.342Z,11.32
2023-03-28T09:25:16.006Z,7.30
2023-03-28T09:27:54.267Z,7.90
2023-03-28T09:30:27.922Z,12.13
2023-03-28T09:33:01.538Z,10.95
2023-03-28T09:35:31.893Z,7.10
2023-03-28T09:38:04.454Z,12.98
2023-03-28T09:40:34.832Z,8.95
2023-03-28T09:43:14.262Z,8.50
2023-03-28T09:45:53.732Z,5.95
2023-03-28T09:48:27.363Z,11.73
2023-03-28T09:50:57.191Z,13.13
2023-03-28T09:53:27.854Z,6.55
2023-03-28T09:56:04.315Z,9.65
2023-03-28T09:58:50.519Z,8.07
2023-03-28T10:01:31.674Z,10.85
2023-03-28T10:04:02.559Z,7.15
2023-03-28T10:06:33.106Z,10.32
2023-03-28T10:09:18.266Z,8.20
2023-03-28T10:11:50.464Z,8.77
2023-03-28T10:14:33.864Z,6.47
2023-03-28T10:17:08.323Z,9.40
2023-03-28T10:20:55.177Z,11.93
2023-03-28T10:27:35.578Z,6.10
2023-03-28T10:31:04.771Z,7.40
2023-03-28T10:34:27.864Z,5.60
2023-03-28T10:37:55.804Z,4.10
2023-03-28T10:40:38.990Z,6.43
2023-03-28T10:43:25.198Z,5.88
2023-03-28T10:46:14.334Z,4.90
2023-03-28T10:49:03.680Z,9.30
2023-03-28T10:51:50.768Z,6.53
2023-03-28T10:54:54.369Z,6.90
2023-03-28T10:57:42.286Z,5.85
2023-03-28T11:00:50.544Z,4.70
2023-03-28T11:03:36.334Z,6.10
2023-03-28T11:06:15.328Z,10.13
2023-03-28T11:08:56.020Z,4.03
2023-03-28T11:11:47.463Z,7.18
2023-03-28T11:14:28.310Z,5.07
2023-03-28T11:17:03.812Z,5.00
2023-03-28T11:19:52.294Z,5.78
2023-03-28T11:22:30.695Z,7.28
2023-03-28T11:25:08.736Z,7.57
2023-03-28T11:27:43.380Z,4.35
2023-03-28T11:30:18.052Z,6.22
2023-03-28T11:32:51.077Z,4.80
2023-03-28T11:35:27.499Z,5.90
2023-03-28T11:38:02.210Z,5.40
2023-03-28T11:40:36.414Z,4.38
2023-03-28T11:43:07.125Z,4.90
2023-03-28T11:45:51.326Z,5.97
2023-03-28T11:48:26.547Z,5.25
2023-03-28T11:51:04.224Z,6.82
2023-03-28T11:53:38.540Z,6.97
2023-03-28T11:56:19.690Z,3.72
2023-03-28T11:58:51.502Z,7.28
2023-03-28T12:01:24.348Z,9.82
2023-03-28T12:04:04.315Z,8.60
2023-03-28T12:06:55.905Z,5.57
2023-03-28T12:09:35.722Z,6.45
2023-03-28T12:12:11.695Z,4.32
2023-03-28T12:14:53.373Z,9.25
2023-03-28T12:17:24.338Z,5.07
2023-03-28T12:19:55.436Z,9.30
2023-03-28T12:22:30.474Z,5.07
2023-03-28T12:25:03.577Z,6.07
2023-03-28T12:27:42.592Z,5.20
2023-03-28T12:30:21.431Z,7.45
2023-03-28T12:32:58.276Z,6.30
2023-03-28T12:35:34.859Z,6.32
2023-03-28T12:38:12.228Z,5.75
2023-03-28T12:40:57.599Z,5.97
2023-03-28T12:43:46.004Z,7.05
2023-03-28T12:46:17.786Z,10.52
2023-03-28T12:48:50.985Z,7.07
2023-03-28T12:51:29.876Z,6.65
2023-03-28T12:54:08.332Z,3.80
2023-03-28T12:56:36.976Z,8.18
2023-03-28T12:59:37.818Z,6.05
2023-03-28T13:02:15.057Z,7.93
2023-03-28T13:04:53.352Z,13.25
2023-03-28T13:07:29.584Z,9.55
2023-03-28T13:10:06.558Z,8.85
2023-03-28T13:12:49.572Z,5.45
2023-03-28T13:15:36.680Z,8.07
2023-03-28T13:18:28.376Z,7.60
2023-03-28T13:20:57.667Z,5.28
2023-03-28T13:23:34.986Z,9.40
2023-03-28T13:26:04.786Z,8.85
2023-03-28T13:28:44.085Z,6.85
2023-03-28T13:31:21.216Z,6.70
2023-03-28T13:33:55.102Z,6.50
2023-03-28T13:36:30.735Z,4.32
2023-03-28T13:39:24.928Z,4.50
2023-03-28T13:41:59.171Z,5.63
2023-03-28T13:44:43.379Z,5.10
2023-03-28T13:47:24.520Z,10.55
2023-03-28T13:50:00.339Z,6.75
2023-03-28T13:52:28.545Z,4.97
2023-03-28T13:55:16.566Z,6.50
2023-03-28T13:57:46.257Z,6.00
2023-03-28T14:00:17.916Z,5.53
2023-03-28T14:02:48.430Z,10.25
2023-03-28T14:05:21.837Z,2.83
2023-03-28T14:07:51.468Z,6.45
2023-03-28T14:10:40.736Z,4.13
2023-03-28T14:13:14.793Z,5.97
2023-03-28T14:15:44.404Z,3.63
2023-03-28T14:18:18.519Z,6.53
2023-03-28T14:20:47.940Z,3.72
2023-03-28T14:23:29.826Z,7.55
2023-03-28T14:26:02.473Z,6.40
2023-03-28T14:28:31.738Z,5.43
2023-03-28T14:31:00.941Z,5.03
2023-03-28T14:33:37.450Z,4.28
2023-03-28T14:36:07.131Z,4.18
2023-03-28T14:38:39.750Z,8.18
2023-03-28T14:41:15.193Z,5.90
2023-03-28T14:43:44.390Z,4.38
2023-03-28T14:46:14.095Z,3.90
2023-03-28T14:48:45.681Z,2.15
2023-03-28T14:51:22.347Z,4.03
2023-03-28T14:53:57.746Z,3.28
2023-03-28T14:56:29.421Z,6.78
2023-03-28T14:59:02.749Z,6.05
2023-03-28T15:01:34.011Z,4.05
2023-03-28T15:04:08.289Z,3.65
2023-03-28T15:06:43.015Z,7.15
2023-03-28T15:09:18.209Z,5.25
2023-03-28T15:11:58.497Z,4.93
2023-03-28T15:14:33.782Z,9.95
2023-03-28T15:17:07.018Z,11.10
2023-03-28T15:19:40.163Z,7.80
2023-03-28T15:22:12.678Z,2.90
2023-03-28T15:24:48.292Z,3.10
2023-03-28T15:27:29.651Z,6.78
2023-03-28T15:29:59.581Z,6.28
2023-03-28T15:32:29.352Z,2.97
2023-03-28T15:35:02.293Z,6.32
2023-03-28T15:37:40.924Z,5.55
2023-03-28T15:40:22.692Z,6.35
2023-03-28T15:42:53.137Z,3.78
2023-03-28T15:45:37.373Z,5.57
2023-03-28T15:48:06.183Z,9.88
2023-03-28T15:50:37.603Z,10.90
2023-03-28T15:53:09.235Z,7.93
2023-03-28T15:55:38.371Z,4.78
2023-03-28T15:58:11.530Z,7.93
2023-03-28T16:00:43.169Z,4.22
2023-03-28T16:03:26.223Z,5.40
2023-03-28T16:06:04.499Z,8.73
2023-03-28T16:08:42.662Z,5.18
2023-03-28T16:11:17.429Z,10.82
2023-03-28T16:13:48.334Z,4.35
2023-03-28T16:16:25.006Z,9.02
2023-03-28T16:18:54.504Z,3.63
2023-03-28T16:21:23.198Z,7.10
2023-03-28T16:23:51.740Z,5.65
2023-03-28T16:26:20.422Z,8.13
2023-03-28T16:28:50.302Z,4.95
2023-03-28T16:31:19.121Z,10.02
2023-03-28T16:33:48.279Z,5.00
2023-03-28T16:36:16.915Z,7.32
2023-03-28T16:38:46.196Z,5.43
2023-03-28T16:41:14.764Z,4.38
2023-03-28T16:43:43.138Z,5.50
2023-03-28T16:46:12.939Z,7.88
2023-03-28T16:48:41.603Z,7.47
2023-03-28T16:51:09.973Z,3.65
2023-03-28T16:53:40.178Z,3.92
2023-03-28T16:56:11.994Z,7.65
2023-03-28T16:58:40.891Z,4.32
2023-03-28T17:01:13.986Z,4.97
2023-03-28T17:03:43.883Z,3.90
2023-03-28T17:06:13.159Z,3.88
2023-03-28T17:08:42.004Z,5.65
2023-03-28T17:11:12.341Z,5.10
2023-03-28T17:13:43.188Z,5.82
2023-03-28T17:16:12.378Z,9.98
2023-03-28T17:18:40.743Z,6.55
2023-03-28T17:21:12.431Z,3.05
2023-03-28T17:23:43.186Z,5.30
2023-03-28T17:26:14.199Z,7.28
2023-03-28T17:28:43.532Z,7.57
2023-03-28T17:31:14.182Z,5.63
2023-03-28T17:33:42.879Z,4.70
2023-03-28T17:36:21.998Z,3.78
2023-03-28T17:38:51.533Z,8.00
2023-03-28T17:41:23.076Z,3.08
2023-03-28T17:43:52.043Z,3.97
2023-03-28T17:46:21.542Z,4.50
2023-03-28T17:48:53.062Z,4.63
2023-03-28T17:51:24.035Z,4.32
2023-03-28T17:53:52.626Z,5.03
2023-03-28T17:56:22.332Z,5.15
2023-03-28T17:58:50.819Z,4.70
2023-03-28T18:01:19.752Z,6.35
2023-03-28T18:03:48.436Z,3.20
2023-03-28T18:06:17.051Z,6.88
2023-03-28T18:08:47.551Z,1.92
2023-03-28T18:11:18.809Z,2.28
2023-03-28T18:13:47.365Z,3.22
2023-03-28T18:16:18.250Z,7.82
2023-03-28T18:18:46.885Z,6.10
2023-03-28T18:21:16.513Z,3.92
2023-03-28T18:23:46.510Z,7.95
2023-03-28T18:26:15.043Z,3.55
2023-03-28T18:28:44.054Z,3.03
2023-03-28T18:31:14.337Z,4.43
2023-03-28T18:33:44.210Z,4.05
2023-03-28T18:36:14.021Z,5.03
2023-03-28T18:38:43.634Z,4.78
2023-03-28T18:41:14.040Z,6.63
2023-03-28T18:43:43.587Z,4.43
2023-03-28T18:46:15.961Z,2.72
2023-03-28T18:48:45.576Z,6.50
2023-03-28T18:51:14.116Z,4.32
2023-03-28T18:53:42.569Z,6.53
2023-03-28T18:56:13.483Z,3.03
2023-03-28T18:58:44.066Z,2.30
2023-03-28T19:01:12.797Z,5.13
2023-03-28T19:03:42.402Z,6.55
2023-03-28T19:06:12.621Z,4.60
2023-03-28T19:08:41.435Z,5.05
2023-03-28T19:11:12.294Z,5.10
2023-03-28T19:13:41.512Z,3.25
2023-03-28T19:16:13.589Z,5.82
2023-03-28T19:18:43.407Z,5.43
2023-03-28T19:21:12.726Z,4.22
2023-03-28T19:23:41.568Z,4.25
2023-03-28T19:26:12.134Z,5.45
2023-03-28T19:28:41.121Z,6.45
2023-03-28T19:31:13.279Z,4.88
2023-03-28T19:33:43.080Z,7.28
2023-03-28T19:36:12.229Z,7.05
2023-03-28T19:38:40.805Z,4.78
2023-03-28T19:41:19.044Z,2.70
2023-03-28T19:43:48.896Z,7.95
2023-03-28T19:46:23.382Z,4.68
2023-03-28T19:48:54.901Z,6.13
2023-03-28T19:51:23.879Z,4.38
2023-03-28T19:53:52.531Z,6.75
2023-03-28T19:56:23.047Z,3.70
2023-03-28T19:58:52.180Z,3.78
2023-03-28T20:01:22.538Z,12.52
2023-03-28T20:03:53.355Z,5.72
2023-03-28T20:06:23.433Z,6.43
2023-03-28T20:08:53.875Z,5.47
2023-03-28T20:11:22.161Z,3.95
2023-03-28T20:13:50.813Z,6.53
2023-03-28T20:16:19.288Z,3.47
2023-03-28T20:18:49.384Z,7.10
2023-03-28T20:21:18.153Z,3.00
2023-03-28T20:23:46.468Z,5.22
2023-03-28T20:26:18.290Z,2.33
2023-03-28T20:28:49.978Z,3.63
2023-03-28T20:31:19.334Z,5.43
2023-03-28T20:33:49.125Z,8.02
2023-03-28T20:36:17.728Z,6.40
2023-03-28T20:38:46.487Z,3.97
2023-03-28T20:41:17.183Z,5.78
2023-03-28T20:43:47.981Z,4.47
2023-03-28T20:46:19.658Z,2.50
2023-03-28T20:48:53.025Z,5.70
2023-03-28T20:51:23.639Z,3.28
2023-03-28T20:53:55.518Z,5.80
2023-03-28T20:56:24.973Z,5.03
2023-03-28T20:58:53.626Z,6.40
2023-03-28T21:01:26.495Z,4.25
2023-03-28T21:03:57.453Z,5.72
2023-03-28T21:06:29.393Z,4.18
2023-03-28T21:08:59.092Z,4.57
2023-03-28T21:11:30.584Z,5.32
2023-03-28T21:14:07.042Z,7.45
2023-03-28T21:16:37.468Z,6.65
2023-03-28T21:19:08.213Z,6.65
2023-03-28T21:21:36.798Z,4.57
2023-03-28T21:24:07.296Z,3.03
2023-03-28T21:26:36.070Z,5.72
2023-03-28T21:29:05.258Z,3.05
2023-03-28T21:31:34.103Z,2.88
2023-03-28T21:34:02.648Z,7.22
2023-03-28T21:36:32.693Z,4.18
2023-03-28T21:39:01.425Z,2.70
2023-03-28T21:41:30.220Z,5.35
2023-03-28T21:43:59.762Z,3.25
2023-03-28T21:46:54.908Z,5.95
2023-03-28T21:49:32.948Z,5.57
2023-03-28T21:52:06.893Z,5.25
2023-03-28T21:54:37.978Z,5.40
2023-03-28T21:57:07.069Z,4.57
2023-03-28T21:59:35.464Z,6.28
2023-03-28T22:02:04.622Z,3.70
2023-03-28T22:04:33.704Z,6.50
2023-03-28T22:07:40.908Z,5.70
2023-03-28T22:10:13.470Z,3.60
2023-03-28T22:12:46.731Z,5.75
2023-03-28T22:15:16.142Z,3.15
2023-03-28T22:17:50.995Z,8.02
2023-03-28T22:20:22.641Z,3.92
2023-03-28T22:23:01.155Z,3.20
2023-03-28T22:25:34.938Z,5.30
2023-03-28T22:28:09.288Z,2.10
2023-03-28T22:30:39.300Z,3.10
2023-03-28T22:33:11.273Z,6.35
2023-03-28T22:35:39.681Z,3.03
2023-03-28T22:38:19.568Z,5.10
2023-03-28T22:40:50.957Z,4.03
2023-03-28T22:43:20.077Z,4.80
2023-03-28T22:45:55.393Z,2.60
2023-03-28T22:48:31.514Z,6.63
2023-03-28T22:51:01.895Z,3.30
2023-03-28T22:53:32.919Z,4.53
2023-03-28T22:56:07.000Z,7.00
2023-03-28T22:58:36.213Z,5.80
2023-03-28T23:01:04.970Z,6.28
2023-03-28T23:03:40.100Z,1.88
2023-03-28T23:06:09.263Z,9.23
2023-03-28T23:08:39.037Z,3.22
2023-03-28T23:11:08.697Z,3.53
2023-03-28T23:13:40.929Z,3.75
2023-03-28T23:18:55.005Z,5.50
2023-03-28T23:21:32.212Z,4.63
2023-03-28T23:24:12.009Z,2.83
2023-03-28T23:26:40.715Z,3.42
2023-03-28T23:29:12.857Z,4.25
2023-03-28T23:31:43.096Z,4.07
2023-03-28T23:34:14.978Z,4.50
2023-03-28T23:40:22.512Z,4.05
2023-03-28T23:43:52.172Z,5.40
2023-03-28T23:47:16.701Z,4.47
2023-03-28T23:50:29.997Z,5.35
2023-03-28T23:57:15.859Z,3.58
